Aérodrome :
LOGIN :

S'inscrire | Disclaimer

   EN    FR    IT 

 










Légende :    VFR   VFR Marginal   IFR   IFR Intensif   IFR Très Intensif
Visi : 
Plafond : 
>= 8 km
>= 3000ft
5 à 8 km
1000 à 3000 ft
1500m à 5 km
500 à 1000 ft
800 à 1500m
200 à 500 ft
< 800m
< 200 ft
Symboles :   Orages  Brouillard  Fortes neiges  Fortes précipitations  Vent > 20 kt
SIGMETs :   Divers  Orages  Givrage  Turbulence  Onde Orograph.  Cendres Volcan.







- Altitude de l'aérodrome : 348 ft
- Code IATA : STN
- Voir les cartes d'approche


EGSS - London Stansted

DERNIER METAR :
  • 152150Z AUTO 07005KT 0200 R04/0450 FG VV/// 13/12 Q1015

METARs EXPIRÉS :
  • 152120Z AUTO 06004KT 0200 R04/0500 FG VV/// 13/12 Q1015
  • 152050Z AUTO 07004KT 0300 R04/0600 FG OVC002 13/12 Q1015
  • 152020Z AUTO 06006KT 1600 BR OVC002 13/12 Q1015
  • 151950Z AUTO 08005KT 1600 BR OVC002 13/12 Q1014
  • 151920Z AUTO 04004KT 1800 BR OVC002 13/12 Q1014

TAF TAF EGSS
Valide du 15 à 18h jusqu'au 17 à 00h UTC


151701Z 1518/1624 06006KT 8000 OVC003
BECMG 1518/1521 0200 FG OVC001
PROB30
TEMPO 1521/1607 2000 -DZ BR BKN002
BECMG 1604/1607 19010KT
BECMG 1607/1610 9999 NSW SCT008
TEMPO 1610/1613 BKN008
ATIS : +44 1279 669 325
Pas de NOTAMs connus pour ce terrain.



MET'MAP, la Météo Aéronautique d'un coup d'oeil ! - Copyright ORBIFLY Décembre 2007 - Disclaimer

ORBIFLY MET'MAP TEAM :

Programmation & Développement : Alexandra Zaïnal
Conception & Développement : Baudouin d'Aumeries
Co-Programmation & Développement : Marc-Olivier Méhu
Soutien technique & logistique : Manuel Goepfert

Contact : metmap@orbifly.com




SOURCES & CREDITS :

   NOAA